Time;durP1;ratioP1;P1;durP2;ratioP2;P2;SDS_P1;SDS_P2;PMS_P1;PMS_P2;Temp;Humidity;BMP_temperature;BMP_pressure;BME280_temperature;BME280_humidity;BME280_pressure;Samples;Min_cycle;Max_cycle;Signal;HPM_P1;HPM_P2
2024/02/28 00:00:57;;;;;;;46.47;19.23;;;;;;;6.55;100.00;97811.84;5102439;28;20055;-78
2024/02/28 00:03:23;;;;;;;54.55;21.45;;;;;;;6.58;100.00;97814.38;5110988;28;20026;-79
2024/02/28 00:05:49;;;;;;;53.72;20.95;;;;;;;6.61;100.00;97824.88;5110817;28;20412;-79
2024/02/28 00:08:16;;;;;;;52.42;21.15;;;;;;;6.62;100.00;97826.56;5093743;28;20036;-79
2024/02/28 00:10:42;;;;;;;48.10;21.60;;;;;;;6.69;100.00;97830.72;5093936;28;20024;-80
2024/02/28 00:13:08;;;;;;;55.83;20.92;;;;;;;6.73;100.00;97832.31;5093095;28;20521;-78
2024/02/28 00:15:33;;;;;;;52.90;21.83;;;;;;;6.69;100.00;97832.50;5093664;28;20032;-80
2024/02/28 00:17:59;;;;;;;44.95;21.13;;;;;;;6.67;100.00;97837.03;5110538;28;20172;-79
2024/02/28 00:20:27;;;;;;;53.58;21.92;;;;;;;6.71;100.00;97834.16;5110669;28;20525;-79
2024/02/28 00:22:52;;;;;;;53.20;24.45;;;;;;;6.61;100.00;97830.19;5110691;28;20031;-79
2024/02/28 00:25:18;;;;;;;47.28;22.38;;;;;;;6.65;100.00;97831.75;5111450;28;20039;-78
2024/02/28 00:27:44;;;;;;;51.42;22.35;;;;;;;6.65;100.00;97834.41;5111587;28;20544;-79
2024/02/28 00:30:10;;;;;;;54.03;21.33;;;;;;;6.62;100.00;97828.38;5110172;28;20027;-79
2024/02/28 00:32:35;;;;;;;49.13;21.77;;;;;;;6.56;100.00;97837.47;5110254;28;20059;-79
2024/02/28 00:35:01;;;;;;;47.13;20.15;;;;;;;6.45;100.00;97842.38;5110102;28;20081;-78
2024/02/28 00:37:26;;;;;;;42.15;20.67;;;;;;;6.33;100.00;97833.09;5111728;28;20093;-80
2024/02/28 00:39:52;;;;;;;43.50;20.25;;;;;;;6.33;100.00;97829.56;5110274;28;20036;-79
2024/02/28 00:42:18;;;;;;;46.20;21.10;;;;;;;6.25;100.00;97834.31;5092924;28;20028;-78
2024/02/28 00:44:43;;;;;;;42.05;20.70;;;;;;;6.34;100.00;97829.50;5093144;28;20023;-79
2024/02/28 00:47:09;;;;;;;44.65;20.92;;;;;;;6.29;100.00;97830.63;5109775;28;20185;-78
2024/02/28 00:49:35;;;;;;;41.45;19.40;;;;;;;6.30;100.00;97842.97;5111582;28;20041;-79
2024/02/28 00:52:39;;;;;;;51.08;21.75;;;;;;;6.23;100.00;97836.19;5093112;28;20031;-80
2024/02/28 00:55:05;;;;;;;47.88;21.55;;;;;;;6.23;100.00;97837.06;5109479;28;20114;-78
2024/02/28 00:57:31;;;;;;;49.78;21.70;;;;;;;6.24;100.00;97836.13;5109826;28;20088;-80
2024/02/28 00:59:56;;;;;;;50.25;21.63;;;;;;;6.23;100.00;97825.56;5110160;28;20023;-79
2024/02/28 01:02:22;;;;;;;52.15;21.77;;;;;;;6.29;100.00;97841.25;5109737;28;20074;-79
2024/02/28 01:04:48;;;;;;;49.45;21.30;;;;;;;6.24;100.00;97849.41;5111175;28;20027;-80
2024/02/28 01:07:14;;;;;;;49.17;22.63;;;;;;;6.23;100.00;97841.50;5109639;28;20023;-79
2024/02/28 01:09:39;;;;;;;46.25;22.17;;;;;;;6.22;100.00;97835.31;5092693;28;20024;-79
2024/02/28 01:12:05;;;;;;;55.00;22.48;;;;;;;6.26;100.00;97852.00;5109471;28;20032;-78
2024/02/28 01:14:30;;;;;;;55.17;23.80;;;;;;;6.25;100.00;97866.19;5109690;28;20020;-79
2024/02/28 01:16:56;;;;;;;54.33;23.25;;;;;;;6.27;100.00;97853.72;5110988;28;20088;-79
2024/02/28 01:19:22;;;;;;;55.13;23.20;;;;;;;6.21;100.00;97844.22;5109632;28;20039;-79
2024/02/28 01:21:47;;;;;;;57.33;23.35;;;;;;;6.20;100.00;97853.09;5109805;28;20099;-79
2024/02/28 01:24:13;;;;;;;50.67;24.23;;;;;;;6.22;100.00;97855.69;5109547;28;20016;-77
2024/02/28 01:26:38;;;;;;;55.95;23.70;;;;;;;6.18;100.00;97857.63;5110847;28;20015;-79
2024/02/28 01:29:04;;;;;;;46.80;22.08;;;;;;;6.16;100.00;97859.47;5092605;28;20035;-79
2024/02/28 01:31:30;;;;;;;55.22;23.65;;;;;;;6.12;100.00;97851.69;5109564;28;20038;-79
2024/02/28 01:33:55;;;;;;;51.00;23.70;;;;;;;6.15;100.00;97859.53;5109512;28;20042;-79
2024/02/28 01:36:21;;;;;;;52.50;23.67;;;;;;;6.10;100.00;97859.69;5109357;28;20031;-79
2024/02/28 01:38:47;;;;;;;54.83;23.58;;;;;;;6.13;100.00;97856.06;5110883;28;20032;-79
2024/02/28 01:41:12;;;;;;;47.75;23.52;;;;;;;6.12;100.00;97860.50;5109470;28;20035;-79
2024/02/28 01:43:38;;;;;;;51.72;24.55;;;;;;;6.07;100.00;97866.91;5092412;28;20027;-80
2024/02/28 01:46:07;;;;;;;54.38;24.40;;;;;;;6.08;100.00;97869.53;5110680;28;20035;-79
2024/02/28 01:48:32;;;;;;;49.83;22.77;;;;;;;6.03;100.00;97863.50;5092407;28;20096;-78
2024/02/28 01:50:58;;;;;;;55.65;23.40;;;;;;;6.00;100.00;97867.16;5109478;28;20053;-79
2024/02/28 01:53:24;;;;;;;51.08;23.15;;;;;;;5.84;100.00;97866.00;5110506;28;20028;-78
2024/02/28 01:55:49;;;;;;;49.42;23.00;;;;;;;5.84;100.00;97857.16;5109306;28;20032;-79
2024/02/28 01:58:15;;;;;;;47.00;21.13;;;;;;;5.79;100.00;97856.47;5109275;28;20114;-80
2024/02/28 02:00:41;;;;;;;49.10;21.17;;;;;;;5.80;100.00;97860.84;5109395;28;20032;-79
2024/02/28 02:03:07;;;;;;;49.08;21.20;;;;;;;5.78;100.00;97871.50;5109695;28;20030;-80
2024/02/28 02:05:32;;;;;;;45.33;22.08;;;;;;;5.70;100.00;97878.91;5109242;28;20024;-79
2024/02/28 02:07:58;;;;;;;47.85;22.23;;;;;;;5.75;100.00;97876.94;5109466;28;20070;-79
2024/02/28 02:10:25;;;;;;;52.90;22.92;;;;;;;5.67;100.00;97876.38;5110815;28;20019;-79
2024/02/28 02:12:51;;;;;;;51.20;22.45;;;;;;;5.61;100.00;97879.25;5112741;28;20550;-79
2024/02/28 02:15:16;;;;;;;48.83;22.80;;;;;;;5.67;100.00;97876.38;5112514;28;20130;-79
2024/02/28 02:17:42;;;;;;;57.42;23.08;;;;;;;5.62;100.00;97880.13;5112829;28;20036;-78
2024/02/28 02:20:10;;;;;;;53.70;23.40;;;;;;;5.65;100.00;97864.97;5095794;28;20035;-79
2024/02/28 02:22:38;;;;;;;47.80;23.08;;;;;;;5.60;100.00;97877.50;5112877;28;20028;-78
2024/02/28 02:25:05;;;;;;;46.88;21.25;;;;;;;5.70;100.00;97876.25;5113951;28;20055;-78
2024/02/28 02:27:30;;;;;;;48.22;21.35;;;;;;;5.69;100.00;97884.28;5113863;28;20050;-77
2024/02/28 02:29:56;;;;;;;48.38;21.67;;;;;;;5.67;100.00;97888.75;5095864;28;20034;-80
2024/02/28 02:32:21;;;;;;;49.60;22.08;;;;;;;5.72;100.00;97887.66;5095617;28;20038;-79
2024/02/28 02:34:47;;;;;;;59.22;23.60;;;;;;;5.69;100.00;97887.78;5095430;28;20414;-79
2024/02/28 02:37:13;;;;;;;53.55;22.70;;;;;;;5.63;100.00;97889.81;5095591;28;20118;-79
2024/02/28 02:39:38;;;;;;;55.67;23.00;;;;;;;5.43;100.00;97880.81;5095341;28;20028;-79
2024/02/28 02:42:04;;;;;;;47.78;22.65;;;;;;;5.51;100.00;97885.81;5113867;28;20028;-79
2024/02/28 02:44:34;;;;;;;49.30;23.63;;;;;;;5.37;100.00;97864.22;5095193;28;20096;-79
2024/02/28 02:46:59;;;;;;;60.53;23.42;;;;;;;5.42;100.00;97878.19;5112717;28;20023;-79
2024/02/28 02:49:25;;;;;;;54.17;21.98;;;;;;;5.44;100.00;97892.28;5113414;28;20020;-79
2024/02/28 02:51:51;;;;;;;48.42;22.85;;;;;;;5.41;100.00;97885.28;5095155;28;20023;-79
2024/02/28 02:54:16;;;;;;;53.83;23.80;;;;;;;5.44;100.00;97881.66;5111870;28;20394;-80
2024/02/28 02:56:45;;;;;;;46.75;22.10;;;;;;;5.46;100.00;97891.28;5113354;28;20147;-78
2024/02/28 02:59:12;;;;;;;53.78;22.85;;;;;;;5.39;100.00;97884.47;5113517;28;20394;-79
2024/02/28 03:01:37;;;;;;;54.58;22.58;;;;;;;5.36;100.00;97879.28;5112095;28;20043;-77
2024/02/28 03:04:03;;;;;;;51.03;22.50;;;;;;;5.46;100.00;97895.72;5112117;28;20074;-79
2024/02/28 03:06:29;;;;;;;52.13;21.88;;;;;;;5.45;100.00;97878.06;5111913;28;20019;-79
2024/02/28 03:08:55;;;;;;;51.20;22.88;;;;;;;5.40;100.00;97885.34;5111675;28;20497;-79
2024/02/28 03:11:20;;;;;;;51.72;23.00;;;;;;;5.36;100.00;97879.28;5111110;28;20127;-79
2024/02/28 03:13:46;;;;;;;48.08;22.13;;;;;;;5.33;100.00;97886.47;5111311;28;20567;-77
2024/02/28 03:16:11;;;;;;;51.00;22.77;;;;;;;5.33;100.00;97886.47;5111894;28;20031;-79
2024/02/28 03:18:37;;;;;;;53.85;23.65;;;;;;;5.28;100.00;97876.03;5111630;28;20027;-78
2024/02/28 03:21:03;;;;;;;49.13;23.52;;;;;;;5.30;100.00;97881.28;5111579;28;20031;-79
2024/02/28 03:23:29;;;;;;;43.95;21.90;;;;;;;5.40;100.00;97888.00;5112967;28;20461;-79
2024/02/28 03:26:10;;;;;;;54.45;23.77;;;;;;;5.43;100.00;97891.41;5112752;28;20063;-78
2024/02/28 03:28:36;;;;;;;55.28;23.58;;;;;;;5.37;100.00;97882.81;5112524;28;20114;-79
2024/02/28 03:31:02;;;;;;;48.45;22.40;;;;;;;5.39;100.00;97884.47;5094390;28;20024;-79
2024/02/28 03:33:27;;;;;;;51.60;24.38;;;;;;;5.38;100.00;97888.03;5112399;28;20398;-80
2024/02/28 03:35:53;;;;;;;52.28;22.95;;;;;;;5.36;100.00;97883.72;5111391;28;20054;-79
2024/02/28 03:38:19;;;;;;;61.28;25.73;;;;;;;5.40;100.00;97890.66;5111448;28;20078;-79
2024/02/28 03:40:44;;;;;;;57.28;25.17;;;;;;;5.42;100.00;97891.44;5111402;28;20024;-79
2024/02/28 03:43:10;;;;;;;70.03;28.85;;;;;;;5.49;100.00;97890.31;5112663;28;20023;-80
2024/02/28 03:45:39;;;;;;;60.40;27.70;;;;;;;5.49;100.00;97898.28;5111179;28;20494;-80
2024/02/28 03:48:05;;;;;;;62.95;26.67;;;;;;;5.46;100.00;97887.78;5110957;28;20487;-80
2024/02/28 03:50:31;;;;;;;59.50;27.02;;;;;;;5.53;100.00;97886.63;5112387;28;20073;-80
2024/02/28 03:52:56;;;;;;;57.25;26.90;;;;;;;5.60;100.00;97887.28;5111021;28;20402;-79
2024/02/28 03:55:22;;;;;;;60.25;27.90;;;;;;;5.58;100.00;97882.00;5112350;28;20031;-80
2024/02/28 03:57:48;;;;;;;57.92;26.20;;;;;;;5.58;100.00;97889.97;5110772;28;20031;-80
2024/02/28 04:00:14;;;;;;;49.85;24.80;;;;;;;5.63;100.00;97887.16;5110975;28;20027;-80
2024/02/28 04:02:40;;;;;;;63.63;25.58;;;;;;;5.66;100.00;97884.41;5112727;28;20506;-81
2024/02/28 04:05:06;;;;;;;73.88;29.38;;;;;;;5.68;100.00;97885.19;5094261;28;20126;-80
2024/02/28 04:07:31;;;;;;;67.85;28.42;;;;;;;5.68;100.00;97899.34;5093706;28;20106;-80
2024/02/28 04:09:57;;;;;;;64.60;26.80;;;;;;;5.56;100.00;97883.00;5093787;28;20067;-80
2024/02/28 04:12:23;;;;;;;68.32;28.90;;;;;;;5.67;100.00;97891.41;5110626;28;20046;-80
2024/02/28 04:14:48;;;;;;;76.28;30.40;;;;;;;5.67;100.00;97888.75;5112359;27;20036;-79
2024/02/28 04:17:14;;;;;;;72.28;29.08;;;;;;;5.62;100.00;97891.59;5110264;28;20071;-79
2024/02/28 04:19:39;;;;;;;74.57;29.33;;;;;;;5.53;100.00;97880.47;5110896;28;20024;-81
2024/02/28 04:22:05;;;;;;;62.30;27.10;;;;;;;5.63;100.00;97898.63;5112191;28;20026;-80
2024/02/28 04:24:32;;;;;;;65.57;28.30;;;;;;;5.56;100.00;97889.19;5110273;28;20453;-81
2024/02/28 04:26:59;;;;;;;76.28;33.42;;;;;;;5.54;100.00;97876.91;5110209;28;20031;-80
2024/02/28 04:29:25;;;;;;;63.67;28.70;;;;;;;5.52;100.00;97884.03;5110609;28;20054;-80
2024/02/28 04:31:51;;;;;;;60.65;25.40;;;;;;;5.28;100.00;97877.81;5110499;28;20031;-81
2024/02/28 04:34:16;;;;;;;46.65;22.77;;;;;;;5.30;100.00;97884.81;5093129;28;20508;-82
2024/02/28 04:36:42;;;;;;;54.42;23.70;;;;;;;5.20;100.00;97899.28;5094101;28;20028;-87
2024/02/28 04:39:07;;;;;;;54.75;23.60;;;;;;;5.15;100.00;97890.66;5094078;28;20032;-84
2024/02/28 04:41:36;;;;;;;58.15;21.42;;;;;;;5.00;100.00;97879.72;5094031;28;20068;-82
2024/02/28 04:51:20;;;;;;;67.38;29.00;;;;;;;4.77;100.00;97889.31;4973876;28;20030;-81
2024/02/28 04:53:46;;;;;;;72.05;27.65;;;;;;;4.64;100.00;97888.00;4973807;28;20031;-82
2024/02/28 04:56:11;;;;;;;67.22;26.08;;;;;;;4.61;100.00;97888.09;5018537;28;20039;-80
2024/02/28 04:58:38;;;;;;;58.72;24.02;;;;;;;4.65;100.00;97896.78;5093154;28;20111;-82
2024/02/28 05:01:04;;;;;;;68.00;29.75;;;;;;;4.74;100.00;97899.13;5093207;28;20024;-82
2024/02/28 05:03:29;;;;;;;66.63;29.33;;;;;;;4.74;100.00;97897.34;5093304;28;20031;-82
2024/02/28 05:05:56;;;;;;;65.72;25.40;;;;;;;4.70;100.00;97897.53;5093391;28;20047;-81
2024/02/28 05:08:21;;;;;;;63.85;26.95;;;;;;;4.74;100.00;97897.34;5111118;28;20038;-81
2024/02/28 05:10:47;;;;;;;88.43;30.60;;;;;;;4.76;100.00;97900.84;5093163;28;20035;-82
2024/02/28 05:13:13;;;;;;;67.60;28.17;;;;;;;4.81;100.00;97912.13;5095883;28;20036;-80
2024/02/28 05:15:38;;;;;;;70.38;29.40;;;;;;;4.77;100.00;97899.03;5098705;28;20031;-82
2024/02/28 05:18:04;;;;;;;61.35;26.77;;;;;;;4.81;100.00;97904.19;5090525;28;20051;-82
2024/02/28 05:20:30;;;;;;;73.65;29.02;;;;;;;4.91;100.00;97913.56;5091566;28;20461;-80
2024/02/28 05:22:55;;;;;;;84.45;31.80;;;;;;;5.00;100.00;97922.13;5090961;28;20036;-82
2024/02/28 05:25:22;;;;;;;71.68;26.35;;;;;;;4.99;100.00;97921.25;5111548;28;20023;-81
2024/02/28 05:27:48;;;;;;;79.97;35.25;;;;;;;5.14;100.00;97930.47;5110649;28;20462;-81
2024/02/28 05:30:14;;;;;;;52.55;24.90;;;;;;;5.19;100.00;97928.53;5090767;28;20032;-79
2024/02/28 05:32:40;;;;;;;67.13;24.02;;;;;;;5.27;100.00;97931.78;5111134;28;20036;-81
2024/02/28 05:35:05;;;;;;;66.63;26.67;;;;;;;5.19;100.00;97940.00;5111069;28;20039;-81
2024/02/28 05:37:31;;;;;;;69.07;25.17;;;;;;;5.21;100.00;97932.84;5109547;28;20045;-80
2024/02/28 05:39:56;;;;;;;63.33;24.17;;;;;;;5.37;100.00;97938.50;5111174;28;20062;-80
2024/02/28 05:42:22;;;;;;;102.65;43.15;;;;;;;5.63;100.00;97934.94;5110704;28;20419;-80
2024/02/28 05:44:51;;;;;;;55.05;24.08;;;;;;;6.10;100.00;97944.66;5110587;28;20028;-75
2024/02/28 05:47:17;;;;;;;48.38;23.73;;;;;;;6.55;100.00;97940.22;5096169;28;20028;-78
2024/02/28 05:49:42;;;;;;;79.57;29.88;;;;;;;7.00;100.00;97944.63;5115652;28;20035;-80
2024/02/28 05:52:08;;;;;;;59.58;24.60;;;;;;;7.20;100.00;97938.47;5116538;28;20024;-81
2024/02/28 05:54:34;;;;;;;87.97;30.70;;;;;;;7.26;100.00;97932.91;5115856;28;20402;-80
2024/02/28 05:57:00;;;;;;;57.95;25.40;;;;;;;7.43;100.00;97939.22;5116909;28;20107;-81
2024/02/28 05:59:26;;;;;;;70.80;25.15;;;;;;;7.54;100.00;97928.09;5096530;28;20159;-80
2024/02/28 06:01:52;;;;;;;81.25;29.75;;;;;;;7.52;100.00;97935.28;5113458;28;20028;-81
2024/02/28 06:04:17;;;;;;;74.93;29.13;;;;;;;7.70;100.00;97938.94;5113172;28;20394;-80
2024/02/28 06:06:43;;;;;;;64.13;27.75;;;;;;;7.79;100.00;97933.19;5114965;28;20031;-80
2024/02/28 06:09:09;;;;;;;80.85;34.35;;;;;;;7.72;100.00;97935.25;5112930;28;20028;-79
2024/02/28 06:11:35;;;;;;;70.78;28.08;;;;;;;7.72;100.00;97939.75;5112821;28;20448;-80
2024/02/28 06:14:02;;;;;;;70.97;29.80;;;;;;;7.79;100.00;97947.38;5095722;28;20047;-80
2024/02/28 06:16:28;;;;;;;67.55;29.15;;;;;;;8.15;100.00;97947.53;5095819;28;20032;-81
2024/02/28 06:18:53;;;;;;;82.68;33.45;;;;;;;8.67;100.00;97948.66;5112960;28;20061;-80
2024/02/28 06:21:22;;;;;;;69.93;32.45;;;;;;;8.92;100.00;97951.00;5113230;28;20019;-81
2024/02/28 06:23:48;;;;;;;79.20;33.08;;;;;;;9.27;100.00;97953.63;5112717;28;20494;-80
2024/02/28 06:26:16;;;;;;;70.70;32.72;;;;;;;9.69;100.00;97957.75;5113516;28;20073;-80
2024/02/28 06:28:45;;;;;;;75.47;34.03;;;;;;;10.55;100.00;97954.91;5113756;28;20027;-81
2024/02/28 06:31:18;;;;;;;80.28;34.35;;;;;;;11.64;100.00;97941.38;5112434;28;20494;-80
2024/02/28 06:33:46;;;;;;;73.65;35.33;;;;;;;12.20;100.00;97935.28;5112056;28;20052;-80
2024/02/28 06:36:12;;;;;;;91.20;39.20;;;;;;;12.44;100.00;97930.19;5113709;28;20042;-80
2024/02/28 06:38:37;;;;;;;92.00;43.00;;;;;;;13.01;100.00;97930.94;5095248;28;20023;-79
2024/02/28 06:41:04;;;;;;;104.68;49.58;;;;;;;13.03;100.00;97929.00;5113692;28;20451;-80
2024/02/28 06:43:30;;;;;;;104.35;48.78;;;;;;;12.42;100.00;97930.28;5111204;28;20054;-79
2024/02/28 06:45:56;;;;;;;94.22;44.75;;;;;;;12.06;100.00;97937.91;5112593;28;20416;-80
2024/02/28 06:48:21;;;;;;;93.40;46.00;;;;;;;12.09;100.00;97932.38;5112449;28;20029;-79
2024/02/28 06:50:47;;;;;;;69.07;36.00;;;;;;;12.00;100.00;97932.94;5112332;28;20019;-79
2024/02/28 06:53:12;;;;;;;80.95;35.25;;;;;;;12.26;100.00;97937.56;5112230;28;20019;-79
2024/02/28 06:55:38;;;;;;;69.32;31.58;;;;;;;13.02;100.00;97930.84;5094571;28;20104;-79
2024/02/28 06:58:04;;;;;;;74.68;34.78;;;;;;;13.96;100.00;97923.59;5112241;28;20487;-80
2024/02/28 07:00:29;;;;;;;69.88;34.28;;;;;;;15.06;100.00;97906.66;5112058;28;20436;-80
2024/02/28 07:02:55;;;;;;;81.07;34.17;;;;;;;16.04;91.47;97903.63;5113417;28;20444;-80
2024/02/28 07:05:21;;;;;;;65.57;32.88;;;;;;;16.49;85.59;97901.84;5112304;28;20102;-80
2024/02/28 07:07:47;;;;;;;73.90;36.25;;;;;;;17.21;76.32;97887.75;5094875;28;20063;-79
2024/02/28 07:10:13;;;;;;;68.75;36.03;;;;;;;17.73;72.86;97895.06;5111820;28;20104;-79
2024/02/28 07:12:39;;;;;;;89.40;32.58;;;;;;;18.60;65.68;97892.91;5111736;28;20040;-79
2024/02/28 07:15:05;;;;;;;74.40;33.10;;;;;;;19.39;61.53;97864.84;5112354;28;20035;-79
2024/02/28 07:17:31;;;;;;;71.82;34.60;;;;;;;19.14;58.98;97870.78;5113466;28;20031;-77
2024/02/28 07:19:57;;;;;;;75.45;36.88;;;;;;;18.91;60.98;97873.75;5111619;28;20031;-79
2024/02/28 07:22:23;;;;;;;68.93;34.67;;;;;;;18.25;61.42;97882.44;5113218;28;20024;-78
2024/02/28 07:24:48;;;;;;;63.20;31.85;;;;;;;17.86;64.00;97882.19;5111958;28;20061;-79
2024/02/28 07:27:14;;;;;;;58.75;30.80;;;;;;;17.07;71.43;97888.00;5112573;28;20059;-79
2024/02/28 07:29:39;;;;;;;60.20;28.90;;;;;;;16.01;81.52;97895.75;5111367;28;20019;-79
2024/02/28 07:32:05;;;;;;;54.38;26.38;;;;;;;15.45;87.74;97894.69;5112764;28;20111;-79
2024/02/28 07:34:31;;;;;;;53.60;24.17;;;;;;;15.81;93.51;97900.00;5112661;28;20092;-79
2024/02/28 07:36:57;;;;;;;46.15;22.40;;;;;;;16.36;85.79;97896.56;5111378;28;20016;-80
2024/02/28 07:39:24;;;;;;;45.47;22.80;;;;;;;16.60;86.65;97891.91;5111455;28;20471;-79
2024/02/28 07:41:50;;;;;;;39.38;21.65;;;;;;;17.51;78.75;97881.59;5111242;28;20032;-78
2024/02/28 07:44:16;;;;;;;33.83;18.08;;;;;;;17.52;80.20;97896.84;5111409;28;20452;-79
2024/02/28 07:46:42;;;;;;;38.17;18.65;;;;;;;17.82;77.38;97886.16;5094004;28;20031;-78
2024/02/28 07:49:08;;;;;;;31.80;17.67;;;;;;;18.66;70.61;97890.50;5111241;28;20493;-80
2024/02/28 07:51:33;;;;;;;34.85;19.17;;;;;;;19.46;65.61;97872.31;5093888;28;20023;-79
2024/02/28 07:53:59;;;;;;;30.27;17.67;;;;;;;20.32;61.77;97882.25;5111111;28;20030;-78
2024/02/28 07:56:25;;;;;;;37.15;17.65;;;;;;;20.53;60.05;97879.31;5110724;28;20441;-79
2024/02/28 07:58:50;;;;;;;29.83;15.38;;;;;;;20.08;59.82;97873.69;5111877;28;20050;-78
2024/02/28 08:01:16;;;;;;;29.75;16.67;;;;;;;20.85;57.97;97873.44;5112201;28;20019;-79
2024/02/28 08:03:42;;;;;;;27.80;16.40;;;;;;;21.31;56.13;97875.22;5111468;27;20031;-78
2024/02/28 08:06:10;;;;;;;29.80;16.52;;;;;;;21.22;55.89;97873.41;5112195;28;20478;-78
2024/02/28 08:08:36;;;;;;;32.15;15.52;;;;;;;21.48;55.20;97869.78;5093354;28;20038;-78
2024/02/28 08:11:03;;;;;;;30.60;14.98;;;;;;;21.23;54.92;97856.06;5110569;28;20031;-79
2024/02/28 08:13:28;;;;;;;27.58;14.82;;;;;;;22.51;52.18;97858.19;5110642;28;20505;-79
2024/02/28 08:15:54;;;;;;;25.30;13.98;;;;;;;21.72;52.48;97857.41;5112030;28;20035;-79
2024/02/28 08:18:20;;;;;;;28.45;15.15;;;;;;;21.94;53.01;97865.97;5110701;28;20050;-79
2024/02/28 08:20:46;;;;;;;33.17;15.80;;;;;;;21.44;53.98;97864.81;5110227;28;20039;-78
2024/02/28 08:23:11;;;;;;;26.67;14.77;;;;;;;21.14;55.03;97866.00;5110670;28;20388;-78
2024/02/28 08:25:37;;;;;;;28.15;14.85;;;;;;;21.77;53.90;97858.66;5110396;28;20102;-78
2024/02/28 08:28:04;;;;;;;27.92;15.32;;;;;;;21.92;52.24;97862.56;5110721;28;20383;-80
2024/02/28 08:30:30;;;;;;;27.98;15.80;;;;;;;22.08;52.24;97853.66;5110405;28;20092;-80
2024/02/28 08:32:57;;;;;;;29.75;15.50;;;;;;;22.59;51.25;97850.91;5110124;28;20119;-80
2024/02/28 08:35:23;;;;;;;27.70;15.93;;;;;;;21.95;51.95;97837.72;5111820;28;20027;-80
2024/02/28 08:37:49;;;;;;;27.48;15.23;;;;;;;20.53;56.04;97863.00;5109193;28;20583;-78
2024/02/28 08:40:15;;;;;;;29.08;15.57;;;;;;;21.42;54.54;97851.34;5110415;28;20023;-79
2024/02/28 08:42:41;;;;;;;28.77;16.30;;;;;;;21.59;53.78;97842.31;5110052;28;20049;-80
2024/02/28 08:45:07;;;;;;;26.20;15.10;;;;;;;22.31;52.65;97848.50;5111436;28;20435;-78
2024/02/28 08:47:33;;;;;;;26.67;15.13;;;;;;;22.97;49.87;97838.69;5110452;28;20505;-78
2024/02/28 08:49:59;;;;;;;36.80;15.82;;;;;;;23.36;48.74;97819.81;5110080;28;20031;-79
2024/02/28 08:52:25;;;;;;;38.55;16.60;;;;;;;22.50;50.42;97834.66;5109868;28;20027;-79
2024/02/28 08:54:50;;;;;;;28.17;15.68;;;;;;;22.84;49.35;97818.31;5109670;28;20501;-78
2024/02/28 08:57:16;;;;;;;26.85;15.18;;;;;;;23.18;48.17;97817.25;5110063;28;20444;-79
2024/02/28 08:59:42;;;;;;;31.27;14.85;;;;;;;23.34;47.81;97821.03;5109484;28;20569;-79
2024/02/28 09:02:08;;;;;;;25.35;15.20;;;;;;;23.65;47.39;97808.47;5110989;28;20028;-78
2024/02/28 09:04:34;;;;;;;29.17;15.68;;;;;;;23.69;47.55;97812.53;5109914;28;20376;-79
2024/02/28 09:07:00;;;;;;;34.50;16.65;;;;;;;23.13;47.86;97811.41;5110017;28;20066;-79
2024/02/28 09:09:27;;;;;;;30.98;15.38;;;;;;;22.94;48.45;97814.44;5110028;28;20494;-78
2024/02/28 09:11:53;;;;;;;26.88;15.10;;;;;;;23.81;46.82;97802.16;5093118;28;20038;-77
2024/02/28 09:14:19;;;;;;;32.10;15.35;;;;;;;25.31;44.17;97802.91;5111612;28;20032;-79
2024/02/28 09:16:50;;;;;;;22.10;10.98;;;;;;;24.10;44.18;97800.56;5111334;28;20123;-79
2024/02/28 09:19:17;;;;;;;19.52;11.57;;;;;;;24.06;45.01;97804.66;5112878;28;20494;-80
2024/02/28 09:21:42;;;;;;;22.30;11.73;;;;;;;24.53;44.58;97798.44;5113900;28;20031;-79
2024/02/28 09:24:08;;;;;;;21.98;11.32;;;;;;;25.32;42.80;97790.88;5114618;28;20399;-79
2024/02/28 09:26:34;;;;;;;18.08;10.85;;;;;;;26.52;40.75;97783.72;5114082;28;20152;-78
2024/02/28 09:28:59;;;;;;;19.33;11.02;;;;;;;26.84;40.12;97772.34;5114160;28;20107;-79
2024/02/28 09:31:25;;;;;;;17.60;9.82;;;;;;;25.73;40.87;97776.91;5115296;28;20028;-80
2024/02/28 09:33:51;;;;;;;16.35;9.40;;;;;;;25.63;41.03;97781.78;5114784;28;20024;-79
2024/02/28 09:36:16;;;;;;;20.30;9.63;;;;;;;25.43;40.59;97769.59;5115161;28;20027;-79
2024/02/28 09:38:42;;;;;;;18.35;9.25;;;;;;;25.81;40.92;97771.34;5096321;28;20035;-78
2024/02/28 09:41:08;;;;;;;19.63;10.90;;;;;;;26.21;40.45;97759.19;5113702;28;20049;-80
2024/02/28 09:43:40;;;;;;;22.00;10.57;;;;;;;27.47;39.17;97757.94;5113678;28;20055;-78
2024/02/28 09:46:07;;;;;;;33.88;16.13;;;;;;;27.41;39.28;97761.41;5113969;28;20098;-79
2024/02/28 09:48:33;;;;;;;33.15;15.15;;;;;;;27.27;40.05;97757.66;5113487;28;20120;-79
2024/02/28 09:50:59;;;;;;;26.35;12.48;;;;;;;27.02;40.27;97753.56;5096251;28;20481;-80
2024/02/28 09:53:26;;;;;;;32.92;12.20;;;;;;;27.99;38.86;97754.81;5096268;28;20040;-79
2024/02/28 09:55:52;;;;;;;20.48;11.98;;;;;;;28.10;38.23;97747.91;5096195;28;20123;-79
2024/02/28 09:58:19;;;;;;;23.67;12.20;;;;;;;27.65;38.70;97743.72;5113301;28;20497;-79
2024/02/28 10:00:46;;;;;;;29.17;14.75;;;;;;;27.24;39.36;97741.56;5113181;28;20024;-80
2024/02/28 10:03:14;;;;;;;19.90;11.32;;;;;;;26.82;39.34;97734.13;5113397;28;20019;-79
2024/02/28 10:05:40;;;;;;;21.98;9.25;;;;;;;25.86;39.62;97738.78;5112891;28;20058;-78
2024/02/28 10:08:06;;;;;;;17.92;8.73;;;;;;;26.27;39.66;97728.28;5113285;28;20512;-80
2024/02/28 10:10:32;;;;;;;18.10;9.80;;;;;;;27.26;39.28;97712.00;5112902;28;20035;-79
2024/02/28 10:12:58;;;;;;;23.05;11.57;;;;;;;27.52;38.55;97710.59;5112493;28;20165;-79
2024/02/28 10:15:27;;;;;;;17.38;8.02;;;;;;;27.29;37.55;97703.38;5114546;28;20176;-79
2024/02/28 10:17:52;;;;;;;15.02;7.18;;;;;;;26.79;37.69;97692.44;5095672;28;20506;-79
2024/02/28 10:20:19;;;;;;;14.73;6.38;;;;;;;27.91;36.20;97686.16;5112737;28;20019;-80
2024/02/28 10:22:45;;;;;;;14.05;6.20;;;;;;;28.28;35.03;97685.81;5113850;28;20391;-79
2024/02/28 10:25:10;;;;;;;13.60;6.35;;;;;;;28.09;35.57;97682.94;5112956;28;20024;-79
2024/02/28 10:27:36;;;;;;;13.52;6.40;;;;;;;27.94;36.02;97683.00;5114199;28;20471;-79
2024/02/28 10:30:04;;;;;;;12.70;6.68;;;;;;;26.96;37.04;97682.94;5112120;28;20031;-79
2024/02/28 10:32:31;;;;;;;17.45;7.88;;;;;;;26.90;37.78;97672.72;5112367;28;20483;-79
2024/02/28 10:34:58;;;;;;;16.75;7.07;;;;;;;26.81;36.90;97669.25;5095617;28;20049;-79
2024/02/28 10:37:24;;;;;;;21.00;5.68;;;;;;;27.38;36.15;97660.09;5112761;28;20019;-79
2024/02/28 10:39:52;;;;;;;22.77;7.32;;;;;;;29.28;34.04;97661.25;5112217;28;20163;-79
2024/02/28 10:42:18;;;;;;;15.13;6.13;;;;;;;30.70;32.20;97644.97;5095654;28;20394;-79
2024/02/28 10:44:44;;;;;;;14.27;5.30;;;;;;;31.22;31.18;97639.16;5095327;28;20110;-78
2024/02/28 10:47:10;;;;;;;15.23;5.55;;;;;;;30.80;31.19;97639.78;5112369;28;20023;-79
2024/02/28 10:49:36;;;;;;;16.48;5.55;;;;;;;30.85;31.36;97632.56;5112324;28;20479;-79
2024/02/28 10:52:03;;;;;;;10.75;5.57;;;;;;;29.85;31.86;97632.22;5095122;28;20032;-79
2024/02/28 10:54:30;;;;;;;9.90;5.28;;;;;;;30.27;31.76;97628.94;5112297;28;20107;-79
2024/02/28 10:56:57;;;;;;;17.25;5.97;;;;;;;30.91;31.52;97630.81;5113443;28;20082;-78
2024/02/28 10:59:25;;;;;;;9.60;4.60;;;;;;;30.81;30.69;97620.25;5113831;28;20034;-80
2024/02/28 11:01:51;;;;;;;9.63;4.85;;;;;;;29.68;31.36;97623.53;5094815;28;20024;-78
2024/02/28 11:04:17;;;;;;;11.00;5.20;;;;;;;29.37;32.29;97626.91;5112087;28;20023;-80
2024/02/28 11:06:53;;;;;;;12.48;5.47;;;;;;;29.29;31.96;97624.34;5112200;28;20464;-79
2024/02/28 11:09:25;;;;;;;18.20;6.60;;;;;;;28.44;33.01;97610.31;5113218;28;20439;-79
2024/02/28 11:11:51;;;;;;;17.95;6.95;;;;;;;27.62;34.08;97615.75;5094808;28;20092;-78
2024/02/28 11:14:17;;;;;;;13.77;5.90;;;;;;;27.37;34.14;97623.56;5094509;28;20047;-79
2024/02/28 11:16:46;;;;;;;19.35;7.97;;;;;;;26.88;34.94;97608.94;5095101;28;20036;-79
2024/02/28 11:19:22;;;;;;;11.63;4.78;;;;;;;26.18;35.51;97623.25;5111703;28;20024;-79